sensor_id;sensor_type;location;lat;lon;timestamp;pressure;altitude;pressure_sealevel;temperature;humidity
79131;BME280;68530;45.194;9.142;2023-03-30T00:02:26;101348.16;;;12.64;71.63
79131;BME280;68530;45.194;9.142;2023-03-30T00:04:55;101350.66;;;12.70;71.10
79131;BME280;68530;45.194;9.142;2023-03-30T00:07:27;101357.84;;;12.65;71.41
79131;BME280;68530;45.194;9.142;2023-03-30T00:09:53;101359.66;;;12.63;71.54
79131;BME280;68530;45.194;9.142;2023-03-30T00:12:18;101356.50;;;12.51;72.20
79131;BME280;68530;45.194;9.142;2023-03-30T00:14:44;101352.97;;;12.53;71.86
79131;BME280;68530;45.194;9.142;2023-03-30T00:17:10;101347.34;;;12.62;71.44
79131;BME280;68530;45.194;9.142;2023-03-30T00:19:36;101356.41;;;12.55;71.76
79131;BME280;68530;45.194;9.142;2023-03-30T00:22:05;101358.03;;;12.59;71.67
79131;BME280;68530;45.194;9.142;2023-03-30T00:24:31;101361.75;;;12.53;72.00
79131;BME280;68530;45.194;9.142;2023-03-30T00:26:57;101354.47;;;12.60;71.45
79131;BME280;68530;45.194;9.142;2023-03-30T00:29:22;101342.44;;;12.49;72.02
79131;BME280;68530;45.194;9.142;2023-03-30T00:31:48;101357.59;;;12.44;72.14
79131;BME280;68530;45.194;9.142;2023-03-30T00:34:13;101362.56;;;12.55;71.71
79131;BME280;68530;45.194;9.142;2023-03-30T00:36:38;101357.81;;;12.38;72.38
79131;BME280;68530;45.194;9.142;2023-03-30T00:39:05;101367.03;;;12.53;71.66
79131;BME280;68530;45.194;9.142;2023-03-30T00:41:35;101361.25;;;12.40;72.52
79131;BME280;68530;45.194;9.142;2023-03-30T00:44:05;101363.91;;;12.40;72.23
79131;BME280;68530;45.194;9.142;2023-03-30T00:46:31;101371.28;;;12.29;72.59
79131;BME280;68530;45.194;9.142;2023-03-30T00:49:00;101368.97;;;12.18;73.21
79131;BME280;68530;45.194;9.142;2023-03-30T00:51:31;101366.47;;;12.13;73.35
79131;BME280;68530;45.194;9.142;2023-03-30T00:54:07;101373.66;;;12.08;73.60
79131;BME280;68530;45.194;9.142;2023-03-30T00:56:33;101367.06;;;12.23;72.75
79131;BME280;68530;45.194;9.142;2023-03-30T00:59:00;101361.53;;;12.31;72.42
79131;BME280;68530;45.194;9.142;2023-03-30T01:01:28;101350.25;;;12.26;72.50
79131;BME280;68530;45.194;9.142;2023-03-30T01:03:59;101364.53;;;12.18;72.89
79131;BME280;68530;45.194;9.142;2023-03-30T01:06:26;101360.03;;;12.22;72.64
79131;BME280;68530;45.194;9.142;2023-03-30T01:08:55;101361.16;;;12.13;72.95
79131;BME280;68530;45.194;9.142;2023-03-30T01:11:22;101363.25;;;12.02;73.25
79131;BME280;68530;45.194;9.142;2023-03-30T01:13:51;101361.66;;;12.26;72.21
79131;BME280;68530;45.194;9.142;2023-03-30T01:16:25;101351.19;;;12.23;72.54
79131;BME280;68530;45.194;9.142;2023-03-30T01:42:21;101326.09;;;12.08;73.06
79131;BME280;68530;45.194;9.142;2023-03-30T01:53:24;101334.28;;;12.29;71.89
79131;BME280;68530;45.194;9.142;2023-03-30T01:58:34;101326.31;;;11.99;73.06
79131;BME280;68530;45.194;9.142;2023-03-30T02:01:03;101322.03;;;11.94;73.32
79131;BME280;68530;45.194;9.142;2023-03-30T02:03:32;101324.47;;;12.02;73.01
79131;BME280;68530;45.194;9.142;2023-03-30T02:06:02;101305.59;;;11.85;73.46
79131;BME280;68530;45.194;9.142;2023-03-30T02:08:31;101313.25;;;11.94;72.84
79131;BME280;68530;45.194;9.142;2023-03-30T02:10:58;101314.78;;;12.03;72.05
79131;BME280;68530;45.194;9.142;2023-03-30T02:13:29;101319.66;;;11.85;72.82
79131;BME280;68530;45.194;9.142;2023-03-30T02:15:58;101329.97;;;11.94;72.54
79131;BME280;68530;45.194;9.142;2023-03-30T02:18:25;101310.38;;;12.02;71.78
79131;BME280;68530;45.194;9.142;2023-03-30T02:20:51;101315.22;;;11.87;72.13
79131;BME280;68530;45.194;9.142;2023-03-30T02:23:19;101327.50;;;11.88;72.20
79131;BME280;68530;45.194;9.142;2023-03-30T02:25:45;101329.13;;;11.94;71.86
79131;BME280;68530;45.194;9.142;2023-03-30T02:28:10;101322.34;;;11.84;72.53
79131;BME280;68530;45.194;9.142;2023-03-30T02:30:40;101316.84;;;11.91;71.66
79131;BME280;68530;45.194;9.142;2023-03-30T02:33:13;101320.78;;;12.08;71.13
79131;BME280;68530;45.194;9.142;2023-03-30T02:35:52;101329.03;;;11.97;71.78
79131;BME280;68530;45.194;9.142;2023-03-30T02:44:40;101322.06;;;11.93;72.34
79131;BME280;68530;45.194;9.142;2023-03-30T02:47:20;101322.81;;;11.98;72.05
79131;BME280;68530;45.194;9.142;2023-03-30T02:55:23;101321.31;;;11.89;72.55
79131;BME280;68530;45.194;9.142;2023-03-30T02:58:08;101314.44;;;11.82;72.34
79131;BME280;68530;45.194;9.142;2023-03-30T03:00:41;101311.00;;;11.80;72.93
79131;BME280;68530;45.194;9.142;2023-03-30T03:03:17;101312.56;;;11.87;72.90
79131;BME280;68530;45.194;9.142;2023-03-30T03:05:43;101315.97;;;11.91;72.81
79131;BME280;68530;45.194;9.142;2023-03-30T03:08:12;101314.28;;;11.88;72.77
79131;BME280;68530;45.194;9.142;2023-03-30T03:10:38;101304.56;;;11.89;73.30
79131;BME280;68530;45.194;9.142;2023-03-30T03:13:04;101307.09;;;11.93;73.26
79131;BME280;68530;45.194;9.142;2023-03-30T03:15:29;101301.94;;;11.89;73.18
79131;BME280;68530;45.194;9.142;2023-03-30T03:17:56;101300.06;;;11.92;73.09
79131;BME280;68530;45.194;9.142;2023-03-30T03:20:22;101300.25;;;11.86;73.33
79131;BME280;68530;45.194;9.142;2023-03-30T03:22:48;101310.75;;;11.89;73.72
79131;BME280;68530;45.194;9.142;2023-03-30T03:25:13;101306.31;;;11.90;73.03
79131;BME280;68530;45.194;9.142;2023-03-30T03:27:39;101298.88;;;12.04;72.55
79131;BME280;68530;45.194;9.142;2023-03-30T03:30:05;101295.41;;;12.01;72.54
79131;BME280;68530;45.194;9.142;2023-03-30T03:32:30;101295.31;;;12.05;72.24
79131;BME280;68530;45.194;9.142;2023-03-30T03:34:56;101298.88;;;12.04;72.44
79131;BME280;68530;45.194;9.142;2023-03-30T03:37:21;101298.00;;;12.04;72.07
79131;BME280;68530;45.194;9.142;2023-03-30T03:39:46;101298.97;;;12.01;72.29
79131;BME280;68530;45.194;9.142;2023-03-30T03:42:12;101295.47;;;11.99;72.27
79131;BME280;68530;45.194;9.142;2023-03-30T03:44:37;101291.88;;;12.02;72.36
79131;BME280;68530;45.194;9.142;2023-03-30T03:47:04;101289.28;;;12.00;72.56
79131;BME280;68530;45.194;9.142;2023-03-30T03:49:30;101293.69;;;12.00;72.80
79131;BME280;68530;45.194;9.142;2023-03-30T03:51:56;101293.31;;;12.14;71.93
79131;BME280;68530;45.194;9.142;2023-03-30T03:54:21;101289.84;;;12.12;71.90
79131;BME280;68530;45.194;9.142;2023-03-30T03:56:46;101284.78;;;12.04;72.44
79131;BME280;68530;45.194;9.142;2023-03-30T03:59:12;101288.03;;;12.14;72.65
79131;BME280;68530;45.194;9.142;2023-03-30T04:01:37;101292.63;;;12.07;72.48
79131;BME280;68530;45.194;9.142;2023-03-30T04:04:02;101287.56;;;11.98;72.79
79131;BME280;68530;45.194;9.142;2023-03-30T04:06:28;101286.59;;;12.02;73.16
79131;BME280;68530;45.194;9.142;2023-03-30T04:08:53;101276.09;;;11.99;72.70
79131;BME280;68530;45.194;9.142;2023-03-30T04:11:18;101285.75;;;12.00;72.88
79131;BME280;68530;45.194;9.142;2023-03-30T04:13:44;101272.53;;;12.01;72.85
79131;BME280;68530;45.194;9.142;2023-03-30T04:16:10;101281.34;;;12.00;72.77
79131;BME280;68530;45.194;9.142;2023-03-30T04:18:35;101285.75;;;12.00;72.49
79131;BME280;68530;45.194;9.142;2023-03-30T04:21:05;101289.97;;;12.07;72.42
79131;BME280;68530;45.194;9.142;2023-03-30T04:23:33;101283.97;;;12.00;72.35
79131;BME280;68530;45.194;9.142;2023-03-30T04:26:04;101275.28;;;11.97;72.57
79131;BME280;68530;45.194;9.142;2023-03-30T04:28:30;101278.72;;;11.99;72.58
79131;BME280;68530;45.194;9.142;2023-03-30T04:31:05;101283.88;;;12.05;72.29
79131;BME280;68530;45.194;9.142;2023-03-30T04:33:35;101287.47;;;12.02;72.05
79131;BME280;68530;45.194;9.142;2023-03-30T04:36:02;101280.44;;;12.03;72.10
79131;BME280;68530;45.194;9.142;2023-03-30T04:38:28;101282.06;;;12.07;71.88
79131;BME280;68530;45.194;9.142;2023-03-30T04:40:54;101271.09;;;12.19;71.81
79131;BME280;68530;45.194;9.142;2023-03-30T04:43:21;101267.44;;;12.24;71.41
79131;BME280;68530;45.194;9.142;2023-03-30T04:45:54;101262.16;;;12.24;71.37
79131;BME280;68530;45.194;9.142;2023-03-30T04:48:21;101268.50;;;12.18;71.25
79131;BME280;68530;45.194;9.142;2023-03-30T04:50:48;101271.97;;;12.20;70.85
79131;BME280;68530;45.194;9.142;2023-03-30T04:53:14;101273.69;;;12.21;71.19
79131;BME280;68530;45.194;9.142;2023-03-30T04:55:41;101273.78;;;12.18;71.51
79131;BME280;68530;45.194;9.142;2023-03-30T04:58:09;101275.47;;;12.20;71.26
79131;BME280;68530;45.194;9.142;2023-03-30T05:00:36;101274.75;;;12.15;71.50
79131;BME280;68530;45.194;9.142;2023-03-30T05:03:02;101272.84;;;12.20;71.21
79131;BME280;68530;45.194;9.142;2023-03-30T05:05:28;101272.72;;;12.24;71.19
79131;BME280;68530;45.194;9.142;2023-03-30T05:07:53;101271.28;;;12.13;71.26
79131;BME280;68530;45.194;9.142;2023-03-30T05:10:19;101264.25;;;12.12;71.85
79131;BME280;68530;45.194;9.142;2023-03-30T05:12:44;101275.78;;;12.10;71.59
79131;BME280;68530;45.194;9.142;2023-03-30T05:15:10;101278.13;;;12.20;71.81
79131;BME280;68530;45.194;9.142;2023-03-30T05:17:35;101280.19;;;12.11;71.59
79131;BME280;68530;45.194;9.142;2023-03-30T05:20:03;101270.19;;;12.20;71.63
79131;BME280;68530;45.194;9.142;2023-03-30T05:22:33;101270.91;;;12.26;71.32
79131;BME280;68530;45.194;9.142;2023-03-30T05:24:58;101259.63;;;12.20;71.47
79131;BME280;68530;45.194;9.142;2023-03-30T05:27:24;101263.25;;;12.16;71.85
79131;BME280;68530;45.194;9.142;2023-03-30T05:29:49;101262.41;;;12.16;71.77
79131;BME280;68530;45.194;9.142;2023-03-30T05:32:15;101260.91;;;12.35;70.75
79131;BME280;68530;45.194;9.142;2023-03-30T05:34:40;101274.25;;;12.31;70.96
79131;BME280;68530;45.194;9.142;2023-03-30T05:37:06;101278.69;;;12.30;70.99
79131;BME280;68530;45.194;9.142;2023-03-30T05:39:31;101276.75;;;12.35;70.99
79131;BME280;68530;45.194;9.142;2023-03-30T05:41:56;101283.81;;;12.35;70.92
79131;BME280;68530;45.194;9.142;2023-03-30T05:44:22;101277.03;;;12.26;71.15
79131;BME280;68530;45.194;9.142;2023-03-30T05:46:47;101282.97;;;12.34;71.53
79131;BME280;68530;45.194;9.142;2023-03-30T05:49:13;101292.78;;;12.31;71.34
79131;BME280;68530;45.194;9.142;2023-03-30T05:51:38;101306.19;;;12.25;71.78
79131;BME280;68530;45.194;9.142;2023-03-30T05:54:03;101291.09;;;12.28;71.46
79131;BME280;68530;45.194;9.142;2023-03-30T05:56:29;101309.38;;;12.36;71.31
79131;BME280;68530;45.194;9.142;2023-03-30T05:58:55;101315.25;;;12.46;71.16
79131;BME280;68530;45.194;9.142;2023-03-30T06:01:20;101311.94;;;12.39;71.20
79131;BME280;68530;45.194;9.142;2023-03-30T06:03:46;101315.16;;;12.49;71.30
79131;BME280;68530;45.194;9.142;2023-03-30T06:06:11;101312.34;;;12.54;70.97
79131;BME280;68530;45.194;9.142;2023-03-30T06:08:38;101310.41;;;12.59;71.42
79131;BME280;68530;45.194;9.142;2023-03-30T06:11:04;101316.56;;;12.59;71.25
79131;BME280;68530;45.194;9.142;2023-03-30T06:13:30;101311.66;;;12.75;70.47
79131;BME280;68530;45.194;9.142;2023-03-30T06:15:56;101295.00;;;12.72;70.18
79131;BME280;68530;45.194;9.142;2023-03-30T06:18:21;101307.88;;;12.83;70.36
79131;BME280;68530;45.194;9.142;2023-03-30T06:20:47;101307.78;;;12.86;69.85
79131;BME280;68530;45.194;9.142;2023-03-30T06:23:13;101305.47;;;13.02;69.52
79131;BME280;68530;45.194;9.142;2023-03-30T06:25:39;101297.28;;;13.10;69.04
79131;BME280;68530;45.194;9.142;2023-03-30T06:28:05;101305.09;;;13.13;69.10
79131;BME280;68530;45.194;9.142;2023-03-30T06:30:32;101303.34;;;13.13;68.82
79131;BME280;68530;45.194;9.142;2023-03-30T06:32:57;101300.56;;;13.16;68.99
79131;BME280;68530;45.194;9.142;2023-03-30T06:35:23;101295.44;;;13.12;68.74
79131;BME280;68530;45.194;9.142;2023-03-30T06:37:48;101299.97;;;13.08;68.93
79131;BME280;68530;45.194;9.142;2023-03-30T06:40:13;101303.16;;;13.18;68.90
79131;BME280;68530;45.194;9.142;2023-03-30T06:42:40;101297.81;;;13.19;68.62
79131;BME280;68530;45.194;9.142;2023-03-30T06:45:06;101298.75;;;13.18;68.56
79131;BME280;68530;45.194;9.142;2023-03-30T06:47:32;101294.94;;;13.26;68.60
79131;BME280;68530;45.194;9.142;2023-03-30T06:49:58;101293.06;;;13.29;68.79
79131;BME280;68530;45.194;9.142;2023-03-30T06:52:23;101294.09;;;13.25;68.54
79131;BME280;68530;45.194;9.142;2023-03-30T06:54:49;101290.38;;;13.05;69.63
79131;BME280;68530;45.194;9.142;2023-03-30T06:57:14;101296.31;;;13.12;68.92
79131;BME280;68530;45.194;9.142;2023-03-30T06:59:40;101306.66;;;13.20;68.83
79131;BME280;68530;45.194;9.142;2023-03-30T07:02:05;101299.34;;;13.27;68.98
79131;BME280;68530;45.194;9.142;2023-03-30T07:04:30;101296.25;;;13.14;68.87
79131;BME280;68530;45.194;9.142;2023-03-30T07:06:56;101295.59;;;13.07;69.63
79131;BME280;68530;45.194;9.142;2023-03-30T07:09:24;101303.50;;;13.08;69.48
79131;BME280;68530;45.194;9.142;2023-03-30T07:11:50;101310.41;;;13.13;69.11
79131;BME280;68530;45.194;9.142;2023-03-30T07:14:15;101315.81;;;13.10;69.34
79131;BME280;68530;45.194;9.142;2023-03-30T07:16:41;101306.09;;;13.10;69.76
79131;BME280;68530;45.194;9.142;2023-03-30T07:19:06;101301.06;;;13.02;69.60
79131;BME280;68530;45.194;9.142;2023-03-30T07:21:32;101300.03;;;13.06;69.09
79131;BME280;68530;45.194;9.142;2023-03-30T07:23:57;101309.72;;;13.07;69.21
79131;BME280;68530;45.194;9.142;2023-03-30T07:26:27;101313.97;;;13.12;69.59
79131;BME280;68530;45.194;9.142;2023-03-30T07:28:53;101311.28;;;13.13;69.53
79131;BME280;68530;45.194;9.142;2023-03-30T07:31:18;101320.34;;;13.06;70.14
79131;BME280;68530;45.194;9.142;2023-03-30T07:33:45;101321.00;;;13.13;69.77
79131;BME280;68530;45.194;9.142;2023-03-30T07:36:11;101321.88;;;13.13;70.41
79131;BME280;68530;45.194;9.142;2023-03-30T07:38:37;101321.50;;;13.24;69.44
79131;BME280;68530;45.194;9.142;2023-03-30T07:41:07;101333.19;;;13.17;70.15
79131;BME280;68530;45.194;9.142;2023-03-30T07:43:33;101331.56;;;13.14;70.13
79131;BME280;68530;45.194;9.142;2023-03-30T07:45:58;101335.25;;;13.08;70.29
79131;BME280;68530;45.194;9.142;2023-03-30T07:48:24;101330.88;;;13.07;70.44
79131;BME280;68530;45.194;9.142;2023-03-30T07:50:49;101337.69;;;13.15;70.59
79131;BME280;68530;45.194;9.142;2023-03-30T07:53:16;101341.16;;;13.17;70.57
79131;BME280;68530;45.194;9.142;2023-03-30T07:55:41;101337.97;;;13.32;69.44
79131;BME280;68530;45.194;9.142;2023-03-30T07:58:08;101344.38;;;13.27;70.22
79131;BME280;68530;45.194;9.142;2023-03-30T08:00:33;101341.66;;;13.28;70.11
79131;BME280;68530;45.194;9.142;2023-03-30T08:02:58;101357.66;;;13.25;70.12
79131;BME280;68530;45.194;9.142;2023-03-30T08:05:24;101348.69;;;13.29;70.31
79131;BME280;68530;45.194;9.142;2023-03-30T08:07:49;101347.91;;;13.26;70.50
79131;BME280;68530;45.194;9.142;2023-03-30T08:10:14;101339.81;;;13.30;71.26
79131;BME280;68530;45.194;9.142;2023-03-30T08:12:40;101334.94;;;13.18;70.98
79131;BME280;68530;45.194;9.142;2023-03-30T08:15:06;101323.22;;;13.25;70.22
79131;BME280;68530;45.194;9.142;2023-03-30T08:17:32;101329.97;;;13.08;70.57
79131;BME280;68530;45.194;9.142;2023-03-30T08:19:57;101320.53;;;13.27;69.75
79131;BME280;68530;45.194;9.142;2023-03-30T08:22:22;101324.19;;;13.22;69.73
79131;BME280;68530;45.194;9.142;2023-03-30T08:24:48;101328.41;;;13.28;70.19
79131;BME280;68530;45.194;9.142;2023-03-30T08:27:13;101335.00;;;13.42;70.04
79131;BME280;68530;45.194;9.142;2023-03-30T08:29:39;101343.06;;;13.39;69.96
79131;BME280;68530;45.194;9.142;2023-03-30T08:32:04;101334.38;;;13.08;70.92
79131;BME280;68530;45.194;9.142;2023-03-30T08:34:31;101342.72;;;13.22;70.23
79131;BME280;68530;45.194;9.142;2023-03-30T08:36:56;101333.78;;;13.27;69.94
79131;BME280;68530;45.194;9.142;2023-03-30T08:39:22;101347.88;;;13.27;70.33
79131;BME280;68530;45.194;9.142;2023-03-30T08:41:56;101343.22;;;13.08;70.86
79131;BME280;68530;45.194;9.142;2023-03-30T08:46:55;101351.97;;;13.11;71.24
79131;BME280;68530;45.194;9.142;2023-03-30T08:49:21;101356.50;;;13.07;70.98
79131;BME280;68530;45.194;9.142;2023-03-30T08:51:49;101347.06;;;13.25;70.58
79131;BME280;68530;45.194;9.142;2023-03-30T08:54:18;101330.63;;;13.15;70.47
79131;BME280;68530;45.194;9.142;2023-03-30T08:56:58;101339.38;;;13.43;70.31
79131;BME280;68530;45.194;9.142;2023-03-30T09:02:00;101349.59;;;13.55;69.87
79131;BME280;68530;45.194;9.142;2023-03-30T09:05:05;101351.88;;;13.39;70.60
79131;BME280;68530;45.194;9.142;2023-03-30T09:07:39;101352.34;;;13.25;70.22
79131;BME280;68530;45.194;9.142;2023-03-30T09:10:13;101359.94;;;13.36;70.82
79131;BME280;68530;45.194;9.142;2023-03-30T09:12:45;101361.00;;;13.30;71.21
79131;BME280;68530;45.194;9.142;2023-03-30T09:15:30;101355.41;;;13.40;70.85
79131;BME280;68530;45.194;9.142;2023-03-30T09:18:38;101340.38;;;13.66;69.82
79131;BME280;68530;45.194;9.142;2023-03-30T09:20:45;101336.81;;;13.67;68.88
79131;BME280;68530;45.194;9.142;2023-03-30T09:23:14;101339.16;;;13.74;68.81
79131;BME280;68530;45.194;9.142;2023-03-30T09:28:44;101351.81;;;14.15;67.45
79131;BME280;68530;45.194;9.142;2023-03-30T09:34:03;101334.44;;;14.30;66.43
79131;BME280;68530;45.194;9.142;2023-03-30T09:36:45;101333.66;;;14.28;66.90
79131;BME280;68530;45.194;9.142;2023-03-30T09:39:18;101322.03;;;14.31;66.75
79131;BME280;68530;45.194;9.142;2023-03-30T09:44:43;101324.88;;;14.48;66.12
79131;BME280;68530;45.194;9.142;2023-03-30T09:47:47;101319.88;;;14.63;65.75
79131;BME280;68530;45.194;9.142;2023-03-30T09:50:26;101318.81;;;14.67;65.19
79131;BME280;68530;45.194;9.142;2023-03-30T09:53:05;101317.75;;;14.73;65.50
79131;BME280;68530;45.194;9.142;2023-03-30T09:55:35;101322.34;;;14.68;65.44
79131;BME280;68530;45.194;9.142;2023-03-30T09:58:18;101319.16;;;14.59;65.42
79131;BME280;68530;45.194;9.142;2023-03-30T10:00:46;101321.41;;;14.69;65.23
79131;BME280;68530;45.194;9.142;2023-03-30T10:03:25;101322.13;;;14.74;64.91
79131;BME280;68530;45.194;9.142;2023-03-30T10:06:06;101309.72;;;14.74;65.45
79131;BME280;68530;45.194;9.142;2023-03-30T10:08:56;101303.47;;;14.53;65.60
79131;BME280;68530;45.194;9.142;2023-03-30T10:11:44;101301.16;;;14.66;65.36
79131;BME280;68530;45.194;9.142;2023-03-30T10:14:42;101304.56;;;14.71;64.98
79131;BME280;68530;45.194;9.142;2023-03-30T10:17:17;101302.69;;;14.73;65.25
79131;BME280;68530;45.194;9.142;2023-03-30T10:19:44;101294.41;;;14.59;66.03
79131;BME280;68530;45.194;9.142;2023-03-30T10:22:15;101283.47;;;14.67;65.47
79131;BME280;68530;45.194;9.142;2023-03-30T10:24:48;101270.44;;;14.83;65.30
79131;BME280;68530;45.194;9.142;2023-03-30T10:27:14;101263.06;;;14.89;64.61
79131;BME280;68530;45.194;9.142;2023-03-30T10:29:47;101268.66;;;15.04;64.96
79131;BME280;68530;45.194;9.142;2023-03-30T10:32:18;101258.34;;;14.96;64.47
79131;BME280;68530;45.194;9.142;2023-03-30T10:34:52;101252.25;;;14.94;64.35
79131;BME280;68530;45.194;9.142;2023-03-30T10:37:25;101241.63;;;14.94;64.21
79131;BME280;68530;45.194;9.142;2023-03-30T10:39:53;101240.13;;;15.09;63.79
79131;BME280;68530;45.194;9.142;2023-03-30T10:42:24;101240.69;;;15.16;63.44
79131;BME280;68530;45.194;9.142;2023-03-30T10:44:55;101250.78;;;15.28;63.21
79131;BME280;68530;45.194;9.142;2023-03-30T10:55:59;101251.94;;;15.42;61.60
79131;BME280;68530;45.194;9.142;2023-03-30T10:59:29;101259.72;;;15.46;61.55
79131;BME280;68530;45.194;9.142;2023-03-30T11:04:49;101248.75;;;15.33;62.06
79131;BME280;68530;45.194;9.142;2023-03-30T11:07:17;101243.72;;;15.27;62.24
79131;BME280;68530;45.194;9.142;2023-03-30T11:09:52;101250.63;;;15.31;62.50
79131;BME280;68530;45.194;9.142;2023-03-30T11:12:19;101243.38;;;15.35;62.22
79131;BME280;68530;45.194;9.142;2023-03-30T11:14:54;101257.06;;;15.46;61.11
79131;BME280;68530;45.194;9.142;2023-03-30T11:17:28;101261.75;;;15.60;60.11
79131;BME280;68530;45.194;9.142;2023-03-30T11:19:57;101252.63;;;15.66;59.62
79131;BME280;68530;45.194;9.142;2023-03-30T11:22:35;101250.03;;;15.65;60.26
79131;BME280;68530;45.194;9.142;2023-03-30T11:25:14;101246.75;;;15.79;59.80
79131;BME280;68530;45.194;9.142;2023-03-30T11:27:52;101248.38;;;15.81;59.84
79131;BME280;68530;45.194;9.142;2023-03-30T11:30:29;101226.91;;;15.47;60.77
79131;BME280;68530;45.194;9.142;2023-03-30T11:33:17;101224.72;;;15.56;58.91
79131;BME280;68530;45.194;9.142;2023-03-30T11:35:47;101227.19;;;15.60;59.34
79131;BME280;68530;45.194;9.142;2023-03-30T11:38:22;101236.72;;;15.65;59.38
79131;BME280;68530;45.194;9.142;2023-03-30T11:41:10;101242.13;;;15.82;58.71
79131;BME280;68530;45.194;9.142;2023-03-30T11:43:36;101234.44;;;16.14;57.23
79131;BME280;68530;45.194;9.142;2023-03-30T11:46:07;101224.41;;;16.02;57.91
79131;BME280;68530;45.194;9.142;2023-03-30T11:51:35;101218.28;;;16.00;56.65
79131;BME280;68530;45.194;9.142;2023-03-30T11:56:50;101226.91;;;16.05;56.06
79131;BME280;68530;45.194;9.142;2023-03-30T12:02:27;101210.75;;;15.90;51.10
79131;BME280;68530;45.194;9.142;2023-03-30T12:10:47;101216.78;;;16.48;49.88
79131;BME280;68530;45.194;9.142;2023-03-30T12:13:17;101212.34;;;16.67;48.02
79131;BME280;68530;45.194;9.142;2023-03-30T12:15:54;101217.34;;;16.73;48.28
79131;BME280;68530;45.194;9.142;2023-03-30T12:18:42;101214.63;;;16.57;47.83
79131;BME280;68530;45.194;9.142;2023-03-30T12:21:35;101204.59;;;16.62;47.75
79131;BME280;68530;45.194;9.142;2023-03-30T12:26:46;101175.09;;;17.18;46.70
79131;BME280;68530;45.194;9.142;2023-03-30T12:29:17;101167.78;;;16.88;46.50
79131;BME280;68530;45.194;9.142;2023-03-30T12:34:26;101166.41;;;17.30;46.96
79131;BME280;68530;45.194;9.142;2023-03-30T12:36:57;101173.06;;;17.39;45.88
79131;BME280;68530;45.194;9.142;2023-03-30T12:39:42;101160.72;;;17.21;45.82
79131;BME280;68530;45.194;9.142;2023-03-30T12:42:24;101165.22;;;17.20;46.45
79131;BME280;68530;45.194;9.142;2023-03-30T12:50:30;101146.44;;;17.06;46.04
79131;BME280;68530;45.194;9.142;2023-03-30T12:53:19;101135.97;;;17.02;46.35
79131;BME280;68530;45.194;9.142;2023-03-30T12:56:08;101138.94;;;17.30;46.39
79131;BME280;68530;45.194;9.142;2023-03-30T13:04:19;101120.53;;;17.41;44.99
79131;BME280;68530;45.194;9.142;2023-03-30T13:12:39;101117.69;;;17.60;45.29
79131;BME280;68530;45.194;9.142;2023-03-30T13:17:56;101118.47;;;17.46;45.62
79131;BME280;68530;45.194;9.142;2023-03-30T13:20:34;101120.00;;;17.35;45.95
79131;BME280;68530;45.194;9.142;2023-03-30T13:23:04;101131.41;;;17.04;45.97
79131;BME280;68530;45.194;9.142;2023-03-30T13:25:38;101114.38;;;17.07;46.33
79131;BME280;68530;45.194;9.142;2023-03-30T13:28:35;101106.59;;;17.20;46.21
79131;BME280;68530;45.194;9.142;2023-03-30T13:33:35;101088.16;;;17.64;46.38
79131;BME280;68530;45.194;9.142;2023-03-30T13:36:15;101076.13;;;17.56;46.04
79131;BME280;68530;45.194;9.142;2023-03-30T13:38:47;101060.84;;;17.44;45.87
79131;BME280;68530;45.194;9.142;2023-03-30T13:41:19;101051.81;;;17.30;45.88
79131;BME280;68530;45.194;9.142;2023-03-30T13:43:57;101048.47;;;17.11;45.87
79131;BME280;68530;45.194;9.142;2023-03-30T13:51:45;101057.31;;;17.11;46.26
79131;BME280;68530;45.194;9.142;2023-03-30T13:54:23;101066.63;;;17.20;46.33
79131;BME280;68530;45.194;9.142;2023-03-30T13:57:10;101065.84;;;17.18;46.57
79131;BME280;68530;45.194;9.142;2023-03-30T13:59:40;101068.41;;;17.03;46.66
79131;BME280;68530;45.194;9.142;2023-03-30T14:02:12;101062.38;;;17.00;46.48
79131;BME280;68530;45.194;9.142;2023-03-30T14:04:39;101058.84;;;16.99;47.08
79131;BME280;68530;45.194;9.142;2023-03-30T14:07:17;101045.78;;;17.11;46.46
79131;BME280;68530;45.194;9.142;2023-03-30T14:09:46;101048.19;;;16.99;46.52
79131;BME280;68530;45.194;9.142;2023-03-30T14:12:25;101042.78;;;17.01;45.94
79131;BME280;68530;45.194;9.142;2023-03-30T14:14:51;101046.44;;;16.98;46.65
79131;BME280;68530;45.194;9.142;2023-03-30T14:17:22;101036.44;;;17.03;46.50
79131;BME280;68530;45.194;9.142;2023-03-30T14:22:20;101028.34;;;17.05;46.85
79131;BME280;68530;45.194;9.142;2023-03-30T14:24:57;101028.34;;;17.05;46.87
79131;BME280;68530;45.194;9.142;2023-03-30T14:27:22;101026.72;;;17.02;47.48
79131;BME280;68530;45.194;9.142;2023-03-30T14:29:50;101017.06;;;17.16;47.48
79131;BME280;68530;45.194;9.142;2023-03-30T14:32:17;101020.06;;;17.42;46.66
79131;BME280;68530;45.194;9.142;2023-03-30T14:34:50;101028.13;;;17.56;46.75
79131;BME280;68530;45.194;9.142;2023-03-30T14:37:16;101030.38;;;17.48;46.35
79131;BME280;68530;45.194;9.142;2023-03-30T14:39:45;101032.09;;;17.49;46.76
79131;BME280;68530;45.194;9.142;2023-03-30T14:44:44;101042.75;;;17.49;46.71
79131;BME280;68530;45.194;9.142;2023-03-30T14:47:11;101037.59;;;17.46;47.14
79131;BME280;68530;45.194;9.142;2023-03-30T14:49:37;101048.44;;;17.43;46.37
79131;BME280;68530;45.194;9.142;2023-03-30T14:52:17;101021.28;;;17.36;46.29
79131;BME280;68530;45.194;9.142;2023-03-30T14:54:45;101020.78;;;17.45;46.54
79131;BME280;68530;45.194;9.142;2023-03-30T14:57:13;101007.19;;;17.50;46.72
79131;BME280;68530;45.194;9.142;2023-03-30T14:59:49;101012.16;;;17.56;46.21
79131;BME280;68530;45.194;9.142;2023-03-30T15:02:25;100996.84;;;17.44;46.58
79131;BME280;68530;45.194;9.142;2023-03-30T15:04:51;100998.03;;;17.54;46.69
79131;BME280;68530;45.194;9.142;2023-03-30T15:07:18;101004.00;;;17.43;46.09
79131;BME280;68530;45.194;9.142;2023-03-30T15:09:53;101018.53;;;17.38;46.48